createdAt,value
2022-08-03T00:02:19.817Z,4.07
2022-08-03T00:04:52.937Z,3.90
2022-08-03T00:07:22.467Z,3.40
2022-08-03T00:09:50.615Z,3.63
2022-08-03T00:12:18.885Z,3.30
2022-08-03T00:14:47.137Z,3.53
2022-08-03T00:17:15.216Z,3.13
2022-08-03T00:19:43.640Z,3.20
2022-08-03T00:22:11.712Z,3.13
2022-08-03T00:24:41.325Z,3.28
2022-08-03T00:27:09.423Z,3.33
2022-08-03T00:29:59.565Z,3.40
2022-08-03T00:32:26.120Z,3.45
2022-08-03T00:34:58.499Z,3.53
2022-08-03T00:37:40.742Z,3.30
2022-08-03T00:40:13.683Z,3.20
2022-08-03T00:42:53.838Z,3.17
2022-08-03T00:45:23.337Z,3.10
2022-08-03T00:47:51.743Z,3.80
2022-08-03T00:50:22.944Z,3.30
2022-08-03T00:52:52.881Z,3.08
2022-08-03T00:55:22.785Z,3.65
2022-08-03T00:57:51.504Z,3.30
2022-08-03T01:00:22.851Z,3.10
2022-08-03T01:02:51.598Z,3.30
2022-08-03T01:05:20.261Z,3.42
2022-08-03T01:08:01.535Z,3.30
2022-08-03T01:10:38.625Z,3.15
2022-08-03T01:13:59.820Z,3.00
2022-08-03T01:16:13.587Z,3.17
2022-08-03T01:18:48.489Z,3.00
2022-08-03T01:21:25.803Z,3.03
2022-08-03T01:24:04.859Z,2.90
2022-08-03T01:26:54.907Z,3.30
2022-08-03T01:29:45.986Z,3.33
2022-08-03T01:32:58.463Z,3.25
2022-08-03T01:35:10.692Z,3.47
2022-08-03T01:37:44.174Z,3.33
2022-08-03T01:40:15.432Z,3.20
2022-08-03T01:42:46.666Z,3.05
2022-08-03T01:45:19.132Z,3.13
2022-08-03T01:47:49.608Z,3.60
2022-08-03T01:50:22.192Z,3.33
2022-08-03T01:52:53.111Z,3.30
2022-08-03T01:55:22.875Z,3.42
2022-08-03T01:58:06.087Z,3.20
2022-08-03T02:00:37.842Z,3.65
2022-08-03T02:03:08.175Z,3.33
2022-08-03T02:05:37.625Z,3.65
2022-08-03T02:08:08.422Z,3.10
2022-08-03T02:10:38.789Z,3.72
2022-08-03T02:13:09.309Z,3.60
2022-08-03T02:15:40.088Z,3.58
2022-08-03T02:18:10.852Z,3.88
2022-08-03T02:20:40.960Z,3.70
2022-08-03T02:23:09.703Z,3.80
2022-08-03T02:25:45.830Z,3.75
2022-08-03T02:28:20.272Z,3.70
2022-08-03T02:30:54.796Z,3.90
2022-08-03T02:33:32.891Z,4.20
2022-08-03T02:36:03.269Z,3.85
2022-08-03T02:38:34.848Z,3.63
2022-08-03T02:41:09.116Z,4.07
2022-08-03T02:43:57.716Z,3.97
2022-08-03T02:46:33.609Z,3.80
2022-08-03T02:49:49.694Z,4.22
2022-08-03T02:51:54.374Z,4.28
2022-08-03T02:54:25.957Z,4.35
2022-08-03T02:56:58.144Z,4.80
2022-08-03T02:59:31.190Z,4.80
2022-08-03T03:04:33.270Z,4.88
2022-08-03T03:07:04.362Z,4.72
2022-08-03T03:09:41.658Z,4.72
2022-08-03T03:12:14.345Z,5.00
2022-08-03T03:14:42.858Z,4.30
2022-08-03T03:17:13.313Z,5.18
2022-08-03T03:19:45.192Z,5.00
2022-08-03T03:22:15.272Z,4.60
2022-08-03T03:24:45.875Z,4.53
2022-08-03T03:27:16.785Z,4.68
2022-08-03T03:29:46.021Z,4.78
2022-08-03T03:32:16.357Z,4.53
2022-08-03T03:34:45.167Z,4.70
2022-08-03T03:37:13.900Z,4.93
2022-08-03T03:39:42.749Z,4.75
2022-08-03T03:42:11.001Z,5.20
2022-08-03T03:44:39.128Z,4.88
2022-08-03T03:47:07.512Z,4.97
2022-08-03T03:49:37.894Z,4.40
2022-08-03T03:52:07.587Z,4.45
2022-08-03T03:54:41.825Z,4.57
2022-08-03T03:57:13.006Z,4.97
2022-08-03T03:59:43.321Z,4.75
2022-08-03T04:02:12.705Z,4.95
2022-08-03T04:04:59.396Z,4.88
2022-08-03T04:07:46.359Z,4.63
2022-08-03T04:10:37.530Z,4.50
2022-08-03T04:13:10.040Z,4.63
2022-08-03T04:15:40.703Z,4.60
2022-08-03T04:18:12.935Z,4.60
2022-08-03T04:20:47.665Z,4.43
2022-08-03T04:23:19.231Z,4.50
2022-08-03T04:25:52.639Z,4.22
2022-08-03T04:28:31.088Z,4.60
2022-08-03T04:31:00.885Z,4.65
2022-08-03T04:33:32.441Z,4.60
2022-08-03T04:36:05.282Z,4.60
2022-08-03T04:38:38.615Z,4.80
2022-08-03T04:41:09.977Z,5.03
2022-08-03T04:43:41.801Z,4.95
2022-08-03T04:46:11.404Z,5.38
2022-08-03T04:48:43.521Z,5.30
2022-08-03T04:51:14.621Z,5.50
2022-08-03T04:53:44.412Z,5.00
2022-08-03T04:56:12.760Z,5.07
2022-08-03T04:58:40.858Z,4.95
2022-08-03T05:01:08.985Z,4.80
2022-08-03T05:03:37.336Z,5.03
2022-08-03T05:06:11.156Z,4.95
2022-08-03T05:08:45.292Z,4.60
2022-08-03T05:11:15.835Z,4.70
2022-08-03T05:13:43.977Z,4.85
2022-08-03T05:16:13.861Z,4.15
2022-08-03T05:18:42.418Z,4.45
2022-08-03T05:21:10.698Z,4.53
2022-08-03T05:23:39.088Z,4.30
2022-08-03T05:26:08.554Z,4.43
2022-08-03T05:28:36.751Z,3.97
2022-08-03T05:31:04.842Z,4.38
2022-08-03T05:33:32.995Z,4.80
2022-08-03T05:36:04.296Z,4.93
2022-08-03T05:38:34.592Z,4.18
2022-08-03T05:41:22.168Z,5.00
2022-08-03T05:43:54.762Z,4.70
2022-08-03T05:46:23.337Z,4.40
2022-08-03T05:48:51.965Z,4.40
2022-08-03T05:51:20.286Z,4.35
2022-08-03T05:53:48.436Z,4.50
2022-08-03T05:56:17.112Z,4.35
2022-08-03T05:58:47.200Z,4.18
2022-08-03T06:01:17.942Z,4.72
2022-08-03T06:03:46.347Z,4.30
2022-08-03T06:06:14.695Z,3.90
2022-08-03T06:08:44.282Z,4.18
2022-08-03T06:11:12.687Z,4.10
2022-08-03T06:13:41.605Z,4.18
2022-08-03T06:16:10.051Z,4.07
2022-08-03T06:18:40.488Z,4.32
2022-08-03T06:21:15.170Z,4.10
2022-08-03T06:23:52.745Z,4.60
2022-08-03T06:26:23.817Z,4.63
2022-08-03T06:28:54.175Z,4.15
2022-08-03T06:31:24.216Z,3.85
2022-08-03T06:34:32.100Z,4.35
2022-08-03T06:36:41.892Z,4.53
2022-08-03T06:39:10.182Z,4.60
2022-08-03T06:41:44.819Z,4.63
2022-08-03T06:44:13.428Z,4.32
2022-08-03T06:46:42.354Z,4.38
2022-08-03T06:49:11.921Z,4.75
2022-08-03T06:52:05.369Z,4.88
2022-08-03T06:54:30.210Z,4.88
2022-08-03T07:00:09.553Z,5.00
2022-08-03T07:02:19.379Z,5.10
2022-08-03T07:04:49.180Z,5.43
2022-08-03T07:07:17.554Z,5.45
2022-08-03T07:09:55.660Z,5.10
2022-08-03T07:12:27.465Z,5.20
2022-08-03T07:15:00.295Z,5.55
2022-08-03T07:17:30.125Z,5.72
2022-08-03T07:20:01.771Z,5.75
2022-08-03T07:22:30.204Z,6.07
2022-08-03T07:24:58.357Z,5.97
2022-08-03T07:27:28.617Z,5.93
2022-08-03T07:29:58.111Z,6.20
2022-08-03T07:32:26.516Z,6.40
2022-08-03T07:34:59.953Z,5.97
2022-08-03T07:37:31.026Z,6.57
2022-08-03T07:40:00.096Z,6.70
2022-08-03T07:42:28.309Z,6.10
2022-08-03T07:44:57.101Z,6.60
2022-08-03T07:47:35.434Z,6.50
2022-08-03T07:50:06.629Z,7.07
2022-08-03T07:52:51.673Z,6.68
2022-08-03T07:55:21.705Z,6.95
2022-08-03T07:58:01.070Z,6.28
2022-08-03T08:00:29.754Z,6.53
2022-08-03T08:02:57.870Z,6.57
2022-08-03T08:05:26.428Z,6.57
2022-08-03T08:07:56.313Z,6.70
2022-08-03T08:10:24.668Z,6.55
2022-08-03T08:12:52.989Z,6.78
2022-08-03T08:15:21.248Z,6.43
2022-08-03T08:17:51.170Z,6.15
2022-08-03T08:20:28.086Z,6.80
2022-08-03T08:23:02.006Z,6.57
2022-08-03T08:25:32.492Z,6.13
2022-08-03T08:28:30.890Z,6.15
2022-08-03T08:30:51.857Z,5.50
2022-08-03T08:33:23.251Z,6.20
2022-08-03T08:35:53.604Z,6.50
2022-08-03T08:38:24.202Z,6.00
2022-08-03T08:40:52.590Z,5.95
2022-08-03T08:43:20.683Z,6.65
2022-08-03T08:45:50.779Z,6.10
2022-08-03T08:48:23.538Z,6.30
2022-08-03T08:53:27.250Z,5.63
2022-08-03T08:56:00.752Z,5.38
2022-08-03T08:58:32.012Z,6.07
2022-08-03T09:01:00.278Z,5.30
2022-08-03T09:03:30.211Z,5.68
2022-08-03T09:06:02.290Z,5.60
2022-08-03T09:08:33.518Z,6.17
2022-08-03T09:11:01.807Z,5.70
2022-08-03T09:13:30.566Z,5.45
2022-08-03T09:16:11.901Z,5.30
2022-08-03T09:18:40.738Z,6.03
2022-08-03T09:21:34.300Z,5.18
2022-08-03T09:24:10.230Z,5.75
2022-08-03T09:26:41.398Z,5.25
2022-08-03T09:29:15.358Z,6.05
2022-08-03T09:31:46.297Z,6.05
2022-08-03T09:34:17.697Z,5.35
2022-08-03T09:36:47.680Z,5.85
2022-08-03T09:39:18.576Z,5.75
2022-08-03T09:41:48.193Z,5.90
2022-08-03T09:44:25.471Z,5.22
2022-08-03T09:46:56.402Z,5.18
2022-08-03T09:49:25.880Z,4.72
2022-08-03T09:52:31.607Z,5.05
2022-08-03T09:54:44.984Z,4.60
2022-08-03T09:57:23.101Z,4.95
2022-08-03T10:00:03.011Z,4.82
2022-08-03T10:02:35.105Z,4.40
2022-08-03T10:05:03.282Z,4.90
2022-08-03T10:07:31.589Z,4.72
2022-08-03T10:10:28.987Z,4.90
2022-08-03T10:12:53.374Z,5.13
2022-08-03T10:16:23.719Z,4.80
2022-08-03T10:18:10.533Z,5.20
2022-08-03T10:20:42.417Z,5.40
2022-08-03T10:23:12.230Z,4.57
2022-08-03T10:25:43.802Z,4.88
2022-08-03T10:28:16.151Z,5.20
2022-08-03T10:30:49.289Z,5.03
2022-08-03T10:33:52.012Z,4.95
2022-08-03T10:36:09.592Z,4.88
2022-08-03T10:38:41.426Z,5.07
2022-08-03T10:41:12.059Z,4.83
2022-08-03T10:43:49.100Z,4.85
2022-08-03T10:46:20.667Z,5.28
2022-08-03T10:48:52.540Z,4.78
2022-08-03T10:51:21.849Z,4.83
2022-08-03T10:53:54.788Z,4.75
2022-08-03T10:57:08.779Z,4.55
2022-08-03T11:00:03.257Z,5.13
2022-08-03T11:03:08.718Z,4.80
2022-08-03T11:05:39.971Z,5.00
2022-08-03T11:08:23.293Z,4.60
2022-08-03T11:10:52.913Z,4.80
2022-08-03T11:13:24.108Z,4.72
2022-08-03T11:15:59.726Z,4.07
2022-08-03T11:18:30.033Z,4.60
2022-08-03T11:20:59.832Z,4.18
2022-08-03T11:24:04.889Z,4.72
2022-08-03T11:26:34.769Z,4.28
2022-08-03T11:29:30.365Z,4.25
2022-08-03T11:31:58.837Z,3.67
2022-08-03T11:34:27.230Z,4.00
2022-08-03T11:37:27.282Z,4.07
2022-08-03T11:39:57.033Z,4.05
2022-08-03T11:42:50.764Z,4.25
2022-08-03T11:45:20.218Z,4.30
2022-08-03T11:47:51.433Z,3.92
2022-08-03T11:50:21.507Z,3.65
2022-08-03T11:52:50.776Z,3.95
2022-08-03T11:55:22.196Z,3.75
2022-08-03T11:59:15.278Z,4.13
2022-08-03T12:00:40.819Z,3.65
2022-08-03T12:03:11.278Z,3.65
2022-08-03T12:05:51.325Z,3.70
2022-08-03T12:08:32.249Z,3.90
2022-08-03T12:11:02.133Z,3.95
2022-08-03T12:14:45.072Z,3.83
2022-08-03T12:16:29.768Z,3.90
2022-08-03T12:18:58.966Z,3.70
2022-08-03T12:21:27.119Z,3.90
2022-08-03T12:24:00.323Z,3.90
2022-08-03T12:26:29.603Z,3.75
2022-08-03T12:28:58.433Z,4.28
2022-08-03T12:31:28.042Z,3.63
2022-08-03T12:34:03.294Z,3.78
2022-08-03T12:36:33.628Z,3.78
2022-08-03T12:39:03.572Z,3.88
2022-08-03T12:41:34.109Z,4.15
2022-08-03T12:44:03.649Z,3.90
2022-08-03T12:46:35.283Z,3.55
2022-08-03T12:49:07.653Z,3.70
2022-08-03T12:51:37.872Z,4.03
2022-08-03T12:54:06.829Z,3.30
2022-08-03T12:57:01.048Z,3.65
2022-08-03T12:59:34.751Z,3.15
2022-08-03T13:02:09.588Z,3.53
2022-08-03T13:04:38.208Z,3.78
2022-08-03T13:07:12.902Z,3.80
2022-08-03T13:09:47.866Z,3.25
2022-08-03T13:12:17.673Z,3.78
2022-08-03T13:14:48.221Z,3.58
2022-08-03T13:17:18.229Z,3.85
2022-08-03T13:19:49.218Z,4.03
2022-08-03T13:22:19.610Z,3.45
2022-08-03T13:24:50.277Z,3.72
2022-08-03T13:28:01.908Z,3.40
2022-08-03T13:30:10.361Z,3.78
2022-08-03T13:32:40.144Z,3.60
2022-08-03T13:35:09.808Z,3.60
2022-08-03T13:37:38.366Z,4.00
2022-08-03T13:40:08.508Z,3.80
2022-08-03T13:42:40.256Z,4.22
2022-08-03T13:45:09.270Z,3.72
2022-08-03T13:47:38.931Z,3.70
2022-08-03T13:50:07.854Z,4.22
2022-08-03T13:52:37.139Z,3.70
2022-08-03T13:55:07.617Z,3.72
2022-08-03T13:58:05.623Z,3.53
2022-08-03T14:00:28.666Z,3.83
2022-08-03T14:03:06.631Z,3.58
2022-08-03T14:05:38.856Z,3.72
2022-08-03T14:08:07.884Z,3.80
2022-08-03T14:10:37.248Z,3.63
2022-08-03T14:13:05.637Z,3.92
2022-08-03T14:15:37.807Z,4.03
2022-08-03T14:18:12.831Z,4.00
2022-08-03T14:20:48.616Z,3.53
2022-08-03T14:23:19.283Z,3.65
2022-08-03T14:25:51.883Z,4.00
2022-08-03T14:28:22.542Z,4.40
2022-08-03T14:30:51.505Z,3.63
2022-08-03T14:33:21.171Z,3.60
2022-08-03T14:35:49.961Z,3.38
2022-08-03T14:38:18.797Z,3.75
2022-08-03T14:40:47.877Z,3.72
2022-08-03T14:43:17.894Z,3.80
2022-08-03T14:45:46.075Z,3.47
2022-08-03T14:50:27.763Z,3.47
2022-08-03T14:51:05.379Z,3.70
2022-08-03T14:53:33.567Z,3.45
2022-08-03T14:56:05.235Z,3.33
2022-08-03T14:58:36.032Z,3.38
2022-08-03T15:02:04.469Z,3.47
2022-08-03T15:03:52.796Z,3.28
2022-08-03T15:06:22.531Z,3.40
2022-08-03T15:09:06.237Z,3.10
2022-08-03T15:11:38.991Z,3.30
2022-08-03T15:14:09.353Z,3.00
2022-08-03T15:16:38.146Z,2.80
2022-08-03T15:20:01.407Z,3.03
2022-08-03T15:21:56.310Z,3.05
2022-08-03T15:24:24.407Z,3.10
2022-08-03T15:26:53.140Z,3.17
2022-08-03T15:30:08.168Z,3.08
2022-08-03T15:32:09.830Z,3.03
2022-08-03T15:34:40.686Z,3.17
2022-08-03T15:37:20.792Z,3.15
2022-08-03T15:39:59.918Z,3.30
2022-08-03T15:42:29.692Z,3.28
2022-08-03T15:44:58.111Z,3.33
2022-08-03T15:47:26.254Z,3.05
2022-08-03T15:49:55.732Z,2.90
2022-08-03T15:52:25.380Z,2.95
2022-08-03T15:54:53.474Z,3.10
2022-08-03T15:57:22.318Z,3.72
2022-08-03T15:59:55.083Z,3.30
2022-08-03T16:02:38.163Z,3.60
2022-08-03T16:05:21.088Z,3.38
2022-08-03T16:08:13.962Z,3.45
2022-08-03T16:10:42.715Z,3.42
2022-08-03T16:13:10.847Z,3.00
2022-08-03T16:15:39.798Z,3.13
2022-08-03T16:18:08.067Z,3.17
2022-08-03T16:20:36.249Z,3.10
2022-08-03T16:23:10.457Z,3.20
2022-08-03T16:25:41.893Z,3.40
2022-08-03T16:28:14.712Z,3.13
2022-08-03T16:30:45.043Z,3.30
2022-08-03T16:33:16.980Z,3.40
2022-08-03T16:38:18.594Z,2.92
2022-08-03T16:40:52.763Z,3.08
2022-08-03T16:43:22.158Z,3.30
2022-08-03T16:45:50.474Z,3.00
2022-08-03T16:48:19.816Z,3.05
2022-08-03T16:50:48.645Z,3.63
2022-08-03T16:53:17.630Z,3.40
2022-08-03T16:56:05.613Z,3.28
2022-08-03T16:58:42.243Z,2.75
2022-08-03T17:01:22.299Z,3.17
2022-08-03T17:04:01.272Z,3.42
2022-08-03T17:06:34.569Z,2.88
2022-08-03T17:09:09.107Z,3.15
2022-08-03T17:11:43.885Z,2.92
2022-08-03T17:14:15.890Z,3.22
2022-08-03T17:16:52.854Z,3.10
2022-08-03T17:19:24.085Z,3.50
2022-08-03T17:21:58.475Z,3.47
2022-08-03T17:24:32.234Z,3.08
2022-08-03T17:27:08.724Z,3.25
2022-08-03T17:29:47.354Z,3.00
2022-08-03T17:32:21.386Z,3.03
2022-08-03T17:34:50.124Z,3.65
2022-08-03T17:37:50.692Z,3.35
2022-08-03T17:40:17.400Z,3.80
2022-08-03T17:42:50.488Z,3.60
2022-08-03T17:45:20.087Z,3.40
2022-08-03T17:47:57.077Z,3.45
2022-08-03T17:50:35.786Z,3.53
2022-08-03T17:56:44.595Z,3.35
2022-08-03T17:59:16.932Z,3.42
2022-08-03T18:02:34.219Z,3.40
2022-08-03T18:05:17.205Z,3.58
2022-08-03T18:07:47.736Z,3.58
2022-08-03T18:10:22.016Z,3.55
2022-08-03T18:12:55.660Z,3.70
2022-08-03T18:15:30.469Z,3.70
2022-08-03T18:18:10.677Z,3.88
2022-08-03T18:20:42.387Z,3.60
2022-08-03T18:23:25.121Z,3.72
2022-08-03T18:26:02.390Z,3.78
2022-08-03T18:28:34.963Z,3.60
2022-08-03T18:31:07.536Z,3.80
2022-08-03T18:34:16.594Z,3.90
2022-08-03T18:36:30.378Z,3.80
2022-08-03T18:39:02.615Z,4.00
2022-08-03T18:41:34.349Z,3.93
2022-08-03T18:44:08.203Z,3.97
2022-08-03T18:47:16.256Z,3.70
2022-08-03T18:49:58.282Z,3.90
2022-08-03T18:52:32.101Z,3.97
2022-08-03T18:55:14.089Z,3.97
2022-08-03T18:57:53.376Z,4.13
2022-08-03T19:00:54.092Z,3.75
2022-08-03T19:03:42.898Z,3.72
2022-08-03T19:06:20.367Z,3.70
2022-08-03T19:08:55.605Z,3.97
2022-08-03T19:11:29.042Z,3.90
2022-08-03T19:14:21.500Z,3.90
2022-08-03T19:17:05.783Z,4.00
2022-08-03T19:19:43.573Z,4.50
2022-08-03T19:22:15.890Z,4.50
2022-08-03T19:24:47.747Z,4.07
2022-08-03T19:27:16.569Z,4.55
2022-08-03T19:29:57.862Z,4.10
2022-08-03T19:35:01.160Z,4.60
2022-08-03T19:37:38.204Z,4.72
2022-08-03T19:40:10.711Z,4.70
2022-08-03T19:42:45.437Z,4.72
2022-08-03T19:45:20.061Z,4.63
2022-08-03T19:47:53.414Z,4.85
2022-08-03T19:50:23.343Z,4.63
2022-08-03T19:52:52.849Z,4.55
2022-08-03T19:55:21.438Z,4.63
2022-08-03T19:57:54.703Z,4.65
2022-08-03T20:00:30.581Z,4.93
2022-08-03T20:03:06.064Z,4.50
2022-08-03T20:05:52.254Z,4.40
2022-08-03T20:08:29.593Z,4.65
2022-08-03T20:10:59.649Z,4.57
2022-08-03T20:13:31.462Z,4.40
2022-08-03T20:16:07.581Z,4.18
2022-08-03T20:18:39.526Z,4.60
2022-08-03T20:21:14.888Z,4.25
2022-08-03T20:23:45.512Z,4.47
2022-08-03T20:26:33.563Z,4.43
2022-08-03T20:29:09.164Z,4.28
2022-08-03T20:31:38.511Z,4.53
2022-08-03T20:34:08.513Z,4.10
2022-08-03T20:36:38.654Z,4.32
2022-08-03T20:39:07.658Z,4.32
2022-08-03T20:41:37.248Z,4.50
2022-08-03T20:44:07.072Z,4.60
2022-08-03T20:46:50.249Z,4.47
2022-08-03T20:49:24.509Z,4.25
2022-08-03T20:51:54.104Z,4.20
2022-08-03T20:54:29.594Z,4.20
2022-08-03T20:57:00.559Z,4.32
2022-08-03T21:02:29.636Z,4.47
2022-08-03T21:05:03.526Z,4.25
2022-08-03T21:07:45.578Z,4.22
2022-08-03T21:10:31.702Z,4.38
2022-08-03T21:13:04.918Z,3.42
2022-08-03T21:13:16.002Z,4.13
2022-08-03T21:16:06.065Z,4.47
2022-08-03T21:18:39.457Z,4.40
2022-08-03T21:21:11.147Z,4.35
2022-08-03T21:23:49.054Z,4.43
2022-08-03T21:26:19.279Z,3.90
2022-08-03T21:28:48.408Z,4.30
2022-08-03T21:31:24.206Z,3.90
2022-08-03T21:33:56.208Z,4.07
2022-08-03T21:36:25.344Z,4.40
2022-08-03T21:38:56.986Z,4.10
2022-08-03T21:41:26.489Z,4.07
2022-08-03T21:43:54.765Z,4.00
2022-08-03T21:46:23.722Z,4.13
2022-08-03T21:48:56.662Z,4.00
2022-08-03T21:51:45.502Z,3.97
2022-08-03T21:54:15.552Z,4.25
2022-08-03T21:56:48.300Z,4.18
2022-08-03T21:59:18.811Z,4.25
2022-08-03T22:01:51.304Z,4.07
2022-08-03T22:07:08.476Z,3.90
2022-08-03T22:09:38.421Z,4.55
2022-08-03T22:12:07.420Z,4.68
2022-08-03T22:14:35.667Z,4.25
2022-08-03T22:17:07.106Z,4.75
2022-08-03T22:19:35.570Z,4.38
2022-08-03T22:22:06.162Z,4.40
2022-08-03T22:24:37.239Z,4.95
2022-08-03T22:27:24.279Z,4.68
2022-08-03T22:29:54.134Z,4.80
2022-08-03T22:32:22.433Z,4.78
2022-08-03T22:34:51.078Z,4.70
2022-08-03T22:37:22.189Z,4.88
2022-08-03T22:39:50.768Z,4.40
2022-08-03T22:42:21.035Z,4.82
2022-08-03T22:44:50.694Z,4.95
2022-08-03T22:47:22.478Z,5.53
2022-08-03T22:50:31.747Z,4.57
2022-08-03T22:52:43.977Z,5.10
2022-08-03T22:55:24.499Z,5.28
2022-08-03T22:57:55.739Z,4.95
2022-08-03T23:00:25.426Z,4.68
2022-08-03T23:02:56.287Z,4.50
2022-08-03T23:06:00.992Z,4.80
2022-08-03T23:08:22.008Z,4.93
2022-08-03T23:10:51.581Z,4.95
2022-08-03T23:13:25.138Z,5.05
2022-08-03T23:15:57.108Z,5.25
2022-08-03T23:18:28.911Z,4.50
2022-08-03T23:20:59.919Z,4.95
2022-08-03T23:23:30.663Z,4.70
2022-08-03T23:26:14.237Z,5.38
2022-08-03T23:28:48.212Z,4.53
2022-08-03T23:31:16.603Z,4.55
2022-08-03T23:33:46.391Z,5.00
2022-08-03T23:36:30.626Z,5.03
2022-08-03T23:39:03.477Z,5.45
2022-08-03T23:41:33.837Z,5.18
2022-08-03T23:44:04.877Z,4.93
2022-08-03T23:46:34.126Z,5.20
2022-08-03T23:49:02.340Z,4.50
2022-08-03T23:51:40.510Z,4.95
2022-08-03T23:54:18.052Z,5.13
2022-08-03T23:56:55.184Z,4.82
2022-08-03T23:59:33.273Z,4.65
